Terminal Aerodrome Forecast
Issued by NWS Wilmington, OH

Current Version | Previous Version | Text Only | Print | Product List | Glossary Off
Versions: 1 2 3 4 5 6 7 8 9 10 11 12 13 14 15 16 17 18 19 20 21 22 23 24 25 26 27 28

141
FTUS41 KILN 092339
TAFCVG
TAF
KCVG 092339Z 1000/1106 27012KT 4SM -SHSN OVC025
      TEMPO 1000/1003 1 1/2SM -SHSN
     FM100400 27011KT P6SM -SHSN OVC022
     FM101200 28012KT 3SM -SHSN OVC022
     FM101600 28014KT P6SM OVC025
     FM102000 28014KT P6SM OVC035
     FM110300 29008KT P6SM BKN035=

USA.gov is the U.S. government's official web portal to all federal, state and local government web resources and services.